createdAt,value
2019-04-23T00:00:03.740Z,7.47
2019-04-23T00:02:53.437Z,7.93
2019-04-23T00:05:36.485Z,7.73
2019-04-23T00:08:04.587Z,7.70
2019-04-23T00:10:28.714Z,8.17
2019-04-23T00:12:59.250Z,7.77
2019-04-23T00:16:08.911Z,7.67
2019-04-23T00:18:37.737Z,8.40
2019-04-23T00:24:17.458Z,9.63
2019-04-23T00:26:37.176Z,9.00
2019-04-23T00:29:13.432Z,8.13
2019-04-23T00:31:39.275Z,8.93
2019-04-23T00:34:10.830Z,8.50
2019-04-23T00:39:08.240Z,8.67
2019-04-23T00:41:42.620Z,9.30
2019-04-23T00:44:16.404Z,8.73
2019-04-23T00:46:45.318Z,8.57
2019-04-23T00:49:19.887Z,8.93
2019-04-23T00:51:50.100Z,9.27
2019-04-23T00:54:20.379Z,9.20
2019-04-23T00:56:44.911Z,8.93
2019-04-23T00:59:11.929Z,9.50
2019-04-23T01:01:50.056Z,8.80
2019-04-23T01:04:20.448Z,8.90
2019-04-23T01:06:52.362Z,9.33
2019-04-23T01:09:22.673Z,9.13
2019-04-23T01:11:52.282Z,8.57
2019-04-23T01:14:23.088Z,9.23
2019-04-23T01:16:49.507Z,9.23
2019-04-23T01:21:43.674Z,9.10
2019-04-23T01:24:25.116Z,9.00
2019-04-23T01:27:52.776Z,9.60
2019-04-23T01:32:36.528Z,8.37
2019-04-23T01:35:15.153Z,9.67
2019-04-23T01:37:44.803Z,8.93
2019-04-23T01:40:15.003Z,8.90
2019-04-23T01:42:49.380Z,9.17
2019-04-23T01:45:28.506Z,9.00
2019-04-23T01:47:45.453Z,9.27
2019-04-23T01:50:14.036Z,7.93
2019-04-23T01:52:50.583Z,8.70
2019-04-23T01:55:15.251Z,8.93
2019-04-23T01:57:46.587Z,9.10
2019-04-23T02:00:22.753Z,9.37
2019-04-23T02:02:49.979Z,8.77
2019-04-23T02:05:23.303Z,9.47
2019-04-23T02:07:52.214Z,9.83
2019-04-23T02:10:39.575Z,8.60
2019-04-23T02:15:26.533Z,9.17
2019-04-23T02:18:00.137Z,9.47
2019-04-23T02:20:33.185Z,9.33
2019-04-23T02:25:50.837Z,9.67
2019-04-23T02:28:38.849Z,9.97
2019-04-23T02:31:12.603Z,10.33
2019-04-23T02:33:35.877Z,10.13
2019-04-23T02:36:07.880Z,9.87
2019-04-23T02:38:40.212Z,9.67
2019-04-23T02:43:26.066Z,9.07
2019-04-23T02:48:36.222Z,9.97
2019-04-23T02:50:57.413Z,9.53
2019-04-23T02:53:44.398Z,10.07
2019-04-23T02:58:43.895Z,9.80
2019-04-23T03:06:05.329Z,10.10
2019-04-23T03:08:39.532Z,9.50
2019-04-23T03:11:20.850Z,9.87
2019-04-23T03:13:50.664Z,10.57
2019-04-23T03:16:38.491Z,10.70
2019-04-23T03:19:09.388Z,10.33
2019-04-23T03:22:07.440Z,10.70
2019-04-23T03:27:19.211Z,10.93
2019-04-23T03:29:48.990Z,10.80
2019-04-23T03:32:52.607Z,10.87
2019-04-23T03:40:00.162Z,11.13
2019-04-23T03:42:18.139Z,11.23
2019-04-23T03:44:50.056Z,11.00
2019-04-23T03:47:18.685Z,11.03
2019-04-23T03:49:48.737Z,11.50
2019-04-23T03:52:30.460Z,11.47
2019-04-23T03:54:45.685Z,11.20
2019-04-23T03:58:10.677Z,11.93
2019-04-23T03:59:56.810Z,11.57
2019-04-23T04:04:45.070Z,10.63
2019-04-23T04:07:30.202Z,11.77
2019-04-23T04:09:51.942Z,10.60
2019-04-23T04:14:54.562Z,11.30
2019-04-23T04:17:26.684Z,10.87
2019-04-23T04:19:56.186Z,11.20
2019-04-23T04:22:50.163Z,10.37
2019-04-23T04:30:00.865Z,10.43
2019-04-23T04:32:36.453Z,10.30
2019-04-23T04:37:40.433Z,10.20
2019-04-23T04:43:00.182Z,9.70
2019-04-23T04:55:03.161Z,9.00
2019-04-23T04:57:40.190Z,8.87
2019-04-23T05:05:20.550Z,8.77
2019-04-23T05:07:44.876Z,9.17
2019-04-23T05:15:17.236Z,8.57
2019-04-23T05:20:21.286Z,8.30
2019-04-23T05:23:00.185Z,8.30
2019-04-23T05:25:17.664Z,8.37
2019-04-23T05:27:53.629Z,8.30
2019-04-23T05:30:24.775Z,8.67
2019-04-23T05:32:50.014Z,8.97
2019-04-23T05:35:43.838Z,8.43
2019-04-23T05:38:11.459Z,8.83
2019-04-23T05:40:30.694Z,8.60
2019-04-23T05:42:53.214Z,8.23
2019-04-23T05:45:21.784Z,8.47
2019-04-23T05:48:05.120Z,8.43
2019-04-23T05:50:38.546Z,7.93
2019-04-23T05:52:59.269Z,7.40
2019-04-23T05:55:21.795Z,8.37
2019-04-23T05:58:16.560Z,8.53
2019-04-23T06:00:34.374Z,7.57
2019-04-23T06:03:09.140Z,8.10
2019-04-23T06:05:34.216Z,8.00
2019-04-23T06:08:05.584Z,8.33
2019-04-23T06:10:32.727Z,7.67
2019-04-23T06:13:08.023Z,7.60
2019-04-23T06:15:31.674Z,8.03
2019-04-23T06:18:08.050Z,7.17
2019-04-23T06:20:45.389Z,7.73
2019-04-23T06:23:29.102Z,7.20
2019-04-23T06:25:49.625Z,7.90
2019-04-23T06:28:14.498Z,7.50
2019-04-23T06:33:14.572Z,6.93
2019-04-23T06:35:46.938Z,7.63
2019-04-23T06:38:32.952Z,7.67
2019-04-23T06:40:43.564Z,7.63
2019-04-23T06:43:20.855Z,7.47
2019-04-23T06:45:45.978Z,7.43
2019-04-23T06:48:21.804Z,7.20
2019-04-23T06:51:00.334Z,7.50
2019-04-23T06:53:21.007Z,7.27
2019-04-23T06:55:57.465Z,6.77
2019-04-23T06:58:33.936Z,6.90
2019-04-23T07:01:00.692Z,7.63
2019-04-23T07:03:31.555Z,7.20
2019-04-23T07:09:03.073Z,6.33
2019-04-23T07:11:17.477Z,7.20
2019-04-23T07:16:09.511Z,6.57
2019-04-23T07:18:41.188Z,6.63
2019-04-23T07:23:53.854Z,6.30
2019-04-23T07:26:30.387Z,6.03
2019-04-23T07:28:49.978Z,6.13
2019-04-23T07:31:20.354Z,6.00
2019-04-23T07:33:57.554Z,5.80
2019-04-23T07:36:24.260Z,5.87
2019-04-23T07:39:17.540Z,5.53
2019-04-23T07:45:03.623Z,5.90
2019-04-23T07:47:53.826Z,5.70
2019-04-23T07:52:59.104Z,5.67
2019-04-23T07:55:25.555Z,5.30
2019-04-23T07:58:00.230Z,5.43
2019-04-23T08:00:32.471Z,5.40
2019-04-23T08:03:02.229Z,5.30
2019-04-23T08:05:26.802Z,5.20
2019-04-23T08:07:55.517Z,5.93
2019-04-23T08:10:29.882Z,5.43
2019-04-23T08:12:58.528Z,6.10
2019-04-23T08:15:28.335Z,5.87
2019-04-23T08:17:58.631Z,5.23
2019-04-23T08:20:35.679Z,5.80
2019-04-23T08:23:03.946Z,5.50
2019-04-23T08:25:56.262Z,4.73
2019-04-23T08:28:37.153Z,5.30
2019-04-23T08:30:56.791Z,5.10
2019-04-23T08:33:23.386Z,5.20
2019-04-23T08:35:57.682Z,5.10
2019-04-23T08:41:03.934Z,5.33
2019-04-23T08:43:40.783Z,5.40
2019-04-23T08:46:23.036Z,5.37
2019-04-23T08:49:01.325Z,5.67
2019-04-23T08:51:38.947Z,4.97
2019-04-23T08:54:13.260Z,5.07
2019-04-23T08:56:21.825Z,5.20
2019-04-23T08:58:53.608Z,4.40
2019-04-23T09:01:24.596Z,4.77
2019-04-23T09:03:54.325Z,5.60
2019-04-23T09:08:58.573Z,4.77
2019-04-23T09:11:44.005Z,4.63
2019-04-23T09:13:56.254Z,5.10
2019-04-23T09:19:08.993Z,5.50
2019-04-23T09:21:32.665Z,5.23
2019-04-23T09:23:56.223Z,4.90
2019-04-23T09:26:33.184Z,5.00
2019-04-23T09:29:04.558Z,5.47
2019-04-23T09:32:07.322Z,5.13
2019-04-23T09:34:37.243Z,5.50
2019-04-23T09:37:18.814Z,5.23
2019-04-23T09:40:14.628Z,4.93
2019-04-23T09:45:48.724Z,4.90
2019-04-23T09:48:35.418Z,5.60
2019-04-23T09:50:50.966Z,5.27
2019-04-23T09:55:41.692Z,4.77
2019-04-23T10:00:51.410Z,4.87
2019-04-23T10:03:16.455Z,5.73
2019-04-23T10:05:39.906Z,5.27
2019-04-23T10:08:10.462Z,5.60
2019-04-23T10:10:30.460Z,5.07
2019-04-23T10:13:00.084Z,5.47
2019-04-23T10:15:34.932Z,5.30
2019-04-23T10:18:00.395Z,6.07
2019-04-23T10:20:30.861Z,6.00
2019-04-23T10:23:00.251Z,6.40
2019-04-23T10:25:30.188Z,6.60
2019-04-23T10:28:04.773Z,5.70
2019-04-23T10:30:31.173Z,6.13
2019-04-23T10:33:01.470Z,6.60
2019-04-23T10:35:41.084Z,6.40
2019-04-23T10:38:06.644Z,7.13
2019-04-23T10:40:36.468Z,6.07
2019-04-23T10:43:05.253Z,5.93
2019-04-23T10:46:15.399Z,5.60
2019-04-23T10:49:37.902Z,6.23
2019-04-23T10:52:02.569Z,6.00
2019-04-23T10:54:37.969Z,5.80
2019-04-23T10:57:11.032Z,6.07
2019-04-23T10:59:39.002Z,6.37
2019-04-23T11:07:29.867Z,5.43
2019-04-23T11:12:42.110Z,5.90
2019-04-23T11:22:45.409Z,5.43
2019-04-23T11:25:26.605Z,5.60
2019-04-23T11:27:49.008Z,6.10
2019-04-23T11:30:27.446Z,5.80
2019-04-23T11:33:10.220Z,6.67
2019-04-23T11:38:15.856Z,6.23
2019-04-23T11:40:25.512Z,5.77
2019-04-23T11:45:35.781Z,5.50
2019-04-23T11:48:26.378Z,5.77
2019-04-23T11:50:42.085Z,5.60
2019-04-23T11:52:56.339Z,5.60
2019-04-23T11:55:39.121Z,5.80
2019-04-23T11:58:07.661Z,5.50
2019-04-23T12:00:34.873Z,5.70
2019-04-23T12:03:07.610Z,5.57
2019-04-23T12:08:57.118Z,6.17
2019-04-23T12:12:02.384Z,6.80
2019-04-23T12:14:37.140Z,5.73
2019-04-23T12:17:13.380Z,6.03
2019-04-23T12:22:10.461Z,6.60
2019-04-23T12:29:44.553Z,6.60
2019-04-23T12:32:41.839Z,6.10
2019-04-23T12:34:59.505Z,6.20
2019-04-23T12:45:20.631Z,5.77
2019-04-23T12:52:47.675Z,5.63
2019-04-23T12:55:26.130Z,5.97
2019-04-23T12:57:46.710Z,6.07
2019-04-23T13:00:23.231Z,6.30
2019-04-23T13:05:21.418Z,5.90
2019-04-23T13:07:55.560Z,5.90
2019-04-23T13:10:20.948Z,6.03
2019-04-23T13:15:27.783Z,6.37
2019-04-23T13:25:55.838Z,6.40
2019-04-23T13:28:21.012Z,5.90
2019-04-23T13:30:56.639Z,5.77
2019-04-23T13:36:03.174Z,6.50
2019-04-23T13:41:01.415Z,6.87
2019-04-23T13:43:36.289Z,7.23
2019-04-23T13:48:24.837Z,6.20
2019-04-23T13:51:06.624Z,6.40
2019-04-23T13:56:01.934Z,6.07
2019-04-23T13:58:31.468Z,6.50
2019-04-23T14:01:07.437Z,6.10
2019-04-23T14:03:48.214Z,6.90
2019-04-23T14:06:18.136Z,6.80
2019-04-23T14:08:47.285Z,6.60
2019-04-23T14:14:00.052Z,7.80
2019-04-23T14:16:22.652Z,8.10
2019-04-23T14:24:10.359Z,6.40
2019-04-23T14:36:30.473Z,7.13
2019-04-23T14:38:52.779Z,7.10
2019-04-23T14:41:31.205Z,7.00
2019-04-23T14:51:32.057Z,7.00
2019-04-23T14:53:53.725Z,8.00
2019-04-23T15:01:47.472Z,8.00
2019-04-23T15:04:27.304Z,7.27
2019-04-23T15:07:00.948Z,7.50
2019-04-23T15:09:27.709Z,7.53
2019-04-23T15:12:02.178Z,7.57
2019-04-23T15:17:00.039Z,7.03
2019-04-23T15:19:40.119Z,7.20
2019-04-23T15:22:07.813Z,7.77
2019-04-23T15:29:24.559Z,7.13
2019-04-23T15:32:11.822Z,7.13
2019-04-23T15:35:01.039Z,7.17
2019-04-23T15:37:19.886Z,8.27
2019-04-23T15:39:47.575Z,8.13
2019-04-23T15:44:41.831Z,7.93
2019-04-23T15:47:20.202Z,8.43
2019-04-23T15:49:45.167Z,8.10
2019-04-23T15:52:40.190Z,7.37
2019-04-23T15:54:50.924Z,7.40
2019-04-23T15:57:30.753Z,8.43
2019-04-23T15:59:53.411Z,7.87
2019-04-23T16:01:49.940Z,7.57
2019-04-23T16:04:20.101Z,8.13
2019-04-23T16:06:49.876Z,8.20
2019-04-23T16:09:52.826Z,7.80
2019-04-23T16:12:09.760Z,8.17
2019-04-23T16:14:56.802Z,8.27
2019-04-23T16:22:38.292Z,7.70
2019-04-23T16:25:12.777Z,8.70
2019-04-23T16:27:34.958Z,8.47
2019-04-23T16:38:21.595Z,8.60
2019-04-23T16:40:36.972Z,28.30
2019-04-23T16:43:10.146Z,8.87
2019-04-23T16:45:40.962Z,8.87
2019-04-23T16:48:26.209Z,8.93
2019-04-23T16:50:54.745Z,9.03
2019-04-23T16:53:19.333Z,9.17
2019-04-23T16:55:47.445Z,9.17
2019-04-23T16:58:23.372Z,8.90
2019-04-23T17:01:01.166Z,8.97
2019-04-23T17:05:50.614Z,9.73
2019-04-23T17:11:00.163Z,9.73
2019-04-23T17:13:20.915Z,9.50
2019-04-23T17:18:29.843Z,9.40
2019-04-23T17:20:52.737Z,10.43
2019-04-23T17:25:59.225Z,10.30
2019-04-23T17:28:35.625Z,10.00
2019-04-23T17:31:24.648Z,9.77
2019-04-23T17:33:35.687Z,10.57
2019-04-23T17:39:13.060Z,9.53
2019-04-23T17:42:16.047Z,9.87
2019-04-23T17:44:45.577Z,10.53
2019-04-23T17:47:14.068Z,9.80
2019-04-23T17:49:42.185Z,10.03
2019-04-23T17:52:18.738Z,10.00
2019-04-23T17:54:51.084Z,10.40
2019-04-23T17:57:15.530Z,10.93
2019-04-23T18:05:00.720Z,9.63
2019-04-23T18:07:32.308Z,10.23
2019-04-23T18:10:09.852Z,10.03
2019-04-23T18:15:02.617Z,10.47
2019-04-23T18:17:36.000Z,10.47
2019-04-23T18:20:04.762Z,9.87
2019-04-23T18:22:41.940Z,9.90
2019-04-23T18:25:18.025Z,10.13
2019-04-23T18:27:52.398Z,9.70
2019-04-23T18:30:58.023Z,9.80
2019-04-23T18:35:51.383Z,9.60
2019-04-23T18:38:29.530Z,8.53
2019-04-23T18:41:02.014Z,8.87
2019-04-23T18:46:00.525Z,8.80
2019-04-23T18:51:26.701Z,8.20
2019-04-23T18:53:43.444Z,8.10
2019-04-23T18:56:06.818Z,8.10
2019-04-23T18:58:46.897Z,7.17
2019-04-23T19:01:07.689Z,6.20
2019-04-23T19:06:47.364Z,6.37
2019-04-23T19:09:37.547Z,5.83
2019-04-23T19:12:09.637Z,6.37
2019-04-23T19:17:29.185Z,5.87
2019-04-23T19:19:44.225Z,5.93
2019-04-23T19:24:37.737Z,5.90
2019-04-23T19:32:00.746Z,6.23
2019-04-23T19:39:55.047Z,5.20
2019-04-23T19:42:15.399Z,6.50
2019-04-23T19:44:43.877Z,6.60
2019-04-23T19:49:41.811Z,12.17
2019-04-23T19:52:20.271Z,7.17
2019-04-23T19:57:22.339Z,6.30
2019-04-23T19:59:50.592Z,5.43
2019-04-23T20:04:45.974Z,5.63
2019-04-23T20:07:32.958Z,5.33
2019-04-23T20:09:55.219Z,5.03
2019-04-23T20:12:25.922Z,5.33
2019-04-23T20:14:52.113Z,5.07
2019-04-23T20:22:34.125Z,4.93
2019-04-23T20:25:18.619Z,4.90
2019-04-23T20:27:32.069Z,5.17
2019-04-23T20:33:52.580Z,4.47
2019-04-23T20:35:38.261Z,4.77
2019-04-23T20:38:25.742Z,4.67
2019-04-23T20:40:48.524Z,5.40
2019-04-23T20:43:14.707Z,4.87
2019-04-23T20:48:18.461Z,4.93
2019-04-23T20:50:44.549Z,5.10
2019-04-23T20:53:13.616Z,4.63
2019-04-23T20:56:01.965Z,4.40
2019-04-23T20:58:54.823Z,4.37
2019-04-23T21:01:51.021Z,4.13
2019-04-23T21:04:13.195Z,4.43
2019-04-23T21:06:47.067Z,4.50
2019-04-23T21:11:49.885Z,14.00
2019-04-23T21:16:44.736Z,4.20
2019-04-23T21:22:09.506Z,4.03
2019-04-23T21:24:37.629Z,4.53
2019-04-23T21:27:42.085Z,3.90
2019-04-23T21:30:10.912Z,4.10
2019-04-23T21:32:41.015Z,3.80
2019-04-23T21:40:56.302Z,3.53
2019-04-23T21:43:13.326Z,3.30
2019-04-23T21:45:50.564Z,2.90
2019-04-23T21:48:16.413Z,3.27
2019-04-23T21:53:15.032Z,3.70
2019-04-23T21:55:54.465Z,3.13
2019-04-23T22:01:02.275Z,3.37
2019-04-23T22:06:09.024Z,3.67
2019-04-23T22:08:22.007Z,3.77
2019-04-23T22:11:29.863Z,4.13
2019-04-23T22:13:29.220Z,4.10
2019-04-23T22:18:25.924Z,3.77
2019-04-23T22:21:02.567Z,4.10
2019-04-23T22:23:30.584Z,4.00
2019-04-23T22:26:07.846Z,4.10
2019-04-23T22:28:26.968Z,4.30
2019-04-23T22:31:04.022Z,3.73
2019-04-23T22:33:37.265Z,4.67
2019-04-23T22:36:04.594Z,3.87
2019-04-23T22:38:33.956Z,4.27
2019-04-23T22:43:29.687Z,4.00
2019-04-23T22:49:01.471Z,3.97
2019-04-23T22:51:21.065Z,4.80
2019-04-23T22:53:55.224Z,4.10
2019-04-23T22:56:15.782Z,4.20
2019-04-23T22:59:02.198Z,4.20
2019-04-23T23:01:26.281Z,4.27
2019-04-23T23:04:05.001Z,4.17
2019-04-23T23:06:48.853Z,4.20
2019-04-23T23:11:42.854Z,4.63
2019-04-23T23:14:37.804Z,4.23
2019-04-23T23:16:35.951Z,5.00
2019-04-23T23:19:14.781Z,4.87
2019-04-23T23:21:57.030Z,4.77
2019-04-23T23:24:06.180Z,4.90
2019-04-23T23:26:46.695Z,5.07
2019-04-23T23:29:05.837Z,4.77
2019-04-23T23:31:49.593Z,4.90
2019-04-23T23:36:47.836Z,5.60
2019-04-23T23:39:22.616Z,5.37
2019-04-23T23:49:20.493Z,4.97
2019-04-23T23:56:58.322Z,5.40
2019-04-23T23:59:18.015Z,5.87
